Time;durP1;ratioP1;P1;durP2;ratioP2;P2;SDS_P1;SDS_P2;PMS_P1;PMS_P2;Temp;Humidity;BMP_temperature;BMP_pressure;BME280_temperature;BME280_humidity;BME280_pressure;Samples;Min_cycle;Max_cycle;Signal;HPM_P1;HPM_P2
2023/08/17 00:04:28;;;;;;;;;;;19.50;99.90;;;;;;20974213;28;19920;-72
2023/08/17 00:14:30;;;;;;;;;;;19.40;99.90;;;;;;20980454;28;19917;-71
2023/08/17 00:24:31;;;;;;;;;;;19.50;99.90;;;;;;20980504;28;19965;-70
2023/08/17 00:34:31;;;;;;;;;;;19.40;99.90;;;;;;20997672;28;19916;-71
2023/08/17 00:44:33;;;;;;;;;;;19.30;99.90;;;;;;21002413;28;20393;-70
2023/08/17 00:54:34;;;;;;;;;;;19.10;99.90;;;;;;20987145;28;19916;-71
2023/08/17 01:04:35;;;;;;;;;;;19.10;99.90;;;;;;20983268;28;19916;-71
2023/08/17 01:14:58;;;;;;;;;;;18.70;99.90;;;;;;20976255;28;19924;-71
2023/08/17 01:24:59;;;;;;;;;;;18.80;99.90;;;;;;20988476;28;19913;-71
2023/08/17 01:35:04;;;;;;;;;;;18.60;99.90;;;;;;20981542;28;19921;-71
2023/08/17 01:45:05;;;;;;;;;;;18.60;99.90;;;;;;20972572;28;19917;-71
2023/08/17 01:55:06;;;;;;;;;;;18.70;99.90;;;;;;20968952;28;19966;-71
2023/08/17 02:05:07;;;;;;;;;;;18.80;99.90;;;;;;20971566;28;20011;-71
2023/08/17 02:15:08;;;;;;;;;;;18.60;99.90;;;;;;20983777;28;19959;-71
2023/08/17 02:25:09;;;;;;;;;;;18.40;99.90;;;;;;20979458;28;19916;-71
2023/08/17 02:35:10;;;;;;;;;;;18.30;99.90;;;;;;20988813;28;19923;-71
2023/08/17 02:45:11;;;;;;;;;;;18.40;99.90;;;;;;20999529;28;19969;-71
2023/08/17 02:55:13;;;;;;;;;;;18.30;99.90;;;;;;21002544;28;20367;-72
2023/08/17 03:05:14;;;;;;;;;;;18.40;99.90;;;;;;21003043;28;19947;-72
2023/08/17 03:15:14;;;;;;;;;;;18.40;99.90;;;;;;21001132;28;19923;-71
2023/08/17 03:25:15;;;;;;;;;;;17.90;99.90;;;;;;20935401;28;20129;-71
2023/08/17 03:35:17;;;;;;;;;;;17.70;99.90;;;;;;20915809;28;19924;-71
2023/08/17 03:45:18;;;;;;;;;;;17.70;99.90;;;;;;20914768;28;20260;-71
2023/08/17 03:55:19;;;;;;;;;;;17.70;99.90;;;;;;20913821;28;19920;-71
2023/08/17 04:05:19;;;;;;;;;;;17.70;99.90;;;;;;20916927;28;19982;-72
2023/08/17 04:15:21;;;;;;;;;;;17.70;99.90;;;;;;20940464;28;19917;-72
2023/08/17 04:25:22;;;;;;;;;;;17.40;99.90;;;;;;20929729;28;19920;-72
2023/08/17 04:35:23;;;;;;;;;;;17.40;99.90;;;;;;20926887;28;19920;-72
2023/08/17 04:45:24;;;;;;;;;;;17.30;99.90;;;;;;20926523;28;19928;-72
2023/08/17 04:55:25;;;;;;;;;;;17.30;99.90;;;;;;20910764;28;19924;-71
2023/08/17 05:05:26;;;;;;;;;;;17.40;99.90;;;;;;20908972;28;20295;-72
2023/08/17 05:15:27;;;;;;;;;;;17.50;99.90;;;;;;20924757;28;20003;-72
2023/08/17 05:25:29;;;;;;;;;;;17.70;99.90;;;;;;20975310;28;19971;-71
2023/08/17 05:35:30;;;;;;;;;;;18.30;99.90;;;;;;20982411;28;19924;-71
2023/08/17 05:45:30;;;;;;;;;;;18.50;99.90;;;;;;20991387;28;19923;-71
2023/08/17 05:55:31;;;;;;;;;;;18.70;99.90;;;;;;20989794;28;19917;-71
2023/08/17 06:05:32;;;;;;;;;;;18.70;99.90;;;;;;20990519;28;19912;-72
2023/08/17 06:15:32;;;;;;;;;;;19.10;99.90;;;;;;20994106;28;19948;-72
2023/08/17 06:25:34;;;;;;;;;;;19.40;99.90;;;;;;20988685;28;19924;-72
2023/08/17 06:35:34;;;;;;;;;;;19.60;99.90;;;;;;20989276;28;20338;-72
2023/08/17 06:45:35;;;;;;;;;;;20.00;99.90;;;;;;20999330;28;20003;-72
2023/08/17 06:55:36;;;;;;;;;;;20.90;99.90;;;;;;20981282;28;20377;-74
2023/08/17 07:05:36;;;;;;;;;;;21.80;99.90;;;;;;20973231;28;19999;-72
2023/08/17 07:15:37;;;;;;;;;;;22.30;99.90;;;;;;20990693;28;19927;-72
2023/08/17 07:25:38;;;;;;;;;;;22.90;99.90;;;;;;20983832;28;19912;-72
2023/08/17 07:35:39;;;;;;;;;;;23.50;99.90;;;;;;20986416;28;19917;-72
2023/08/17 07:45:39;;;;;;;;;;;23.20;99.90;;;;;;20985804;28;19927;-72
2023/08/17 07:55:40;;;;;;;;;;;24.10;99.90;;;;;;20982956;28;19924;-74
2023/08/17 08:05:40;;;;;;;;;;;23.80;99.90;;;;;;20995333;28;19912;-72
2023/08/17 08:15:41;;;;;;;;;;;24.30;99.90;;;;;;20992072;28;19916;-72
2023/08/17 08:25:42;;;;;;;;;;;23.90;99.90;;;;;;20980124;28;20007;-72
2023/08/17 08:35:42;;;;;;;;;;;24.50;99.90;;;;;;20995273;28;19923;-72
2023/08/17 08:45:46;;;;;;;;;;;24.90;99.90;;;;;;20994873;28;19916;-72
2023/08/17 08:55:58;;;;;;;;;;;25.10;99.90;;;;;;20983006;28;20286;-72
2023/08/17 09:05:59;;;;;;;;;;;26.10;99.90;;;;;;20990345;28;20499;-72
2023/08/17 09:16:01;;;;;;;;;;;26.80;99.90;;;;;;20990273;28;19920;-72
2023/08/17 09:26:07;;;;;;;;;;;26.70;99.90;;;;;;20995009;28;19917;-71
2023/08/17 09:36:09;;;;;;;;;;;27.10;99.90;;;;;;20990841;28;19916;-72
2023/08/17 09:46:10;;;;;;;;;;;27.20;99.90;;;;;;20980735;28;19927;-72
2023/08/17 09:56:12;;;;;;;;;;;26.30;99.90;;;;;;21008341;28;20450;-72
2023/08/17 10:06:15;;;;;;;;;;;26.00;99.90;;;;;;21016389;28;19957;-71
2023/08/17 10:16:39;;;;;;;;;;;25.70;99.90;;;;;;21024830;28;20392;-71
2023/08/17 10:26:41;;;;;;;;;;;26.10;99.90;;;;;;21013491;28;19916;-71
2023/08/17 10:36:41;;;;;;;;;;;27.70;99.90;;;;;;21014804;28;19978;-72
2023/08/17 10:46:46;;;;;;;;;;;27.90;99.90;;;;;;21014983;28;19916;-72
2023/08/17 10:56:46;;;;;;;;;;;28.50;99.90;;;;;;21012829;28;19951;-72
2023/08/17 11:07:00;;;;;;;;;;;28.00;99.90;;;;;;21008905;28;19916;-72
2023/08/17 11:17:02;;;;;;;;;;;29.00;99.90;;;;;;21001140;28;19957;-72
2023/08/17 11:27:03;;;;;;;;;;;28.90;99.90;;;;;;21001143;28;20310;-73
2023/08/17 11:37:04;;;;;;;;;;;29.30;99.90;;;;;;20996998;28;19916;-72
2023/08/17 11:47:05;;;;;;;;;;;29.70;99.90;;;;;;20982887;28;20333;-72
2023/08/17 11:57:05;;;;;;;;;;;30.10;99.90;;;;;;20984763;28;19938;-72
2023/08/17 12:07:06;;;;;;;;;;;30.60;99.90;;;;;;20983338;28;19920;-73
2023/08/17 12:17:07;;;;;;;;;;;31.50;99.80;;;;;;20995585;28;19917;-73
2023/08/17 12:27:07;;;;;;;;;;;29.80;99.90;;;;;;20993878;28;19912;-73
2023/08/17 12:37:09;;;;;;;;;;;30.60;99.90;;;;;;20995331;28;19916;-73
2023/08/17 12:47:10;;;;;;;;;;;31.60;99.90;;;;;;21001332;28;19943;-73
2023/08/17 12:57:11;;;;;;;;;;;32.00;99.90;;;;;;20993872;28;19921;-72
2023/08/17 13:07:11;;;;;;;;;;;31.50;99.90;;;;;;20992560;28;19919;-73
2023/08/17 13:17:14;;;;;;;;;;;30.10;99.90;;;;;;20991045;28;20371;-73
2023/08/17 13:27:15;;;;;;;;;;;29.70;99.90;;;;;;20974451;28;20286;-72
2023/08/17 13:37:15;;;;;;;;;;;28.90;99.90;;;;;;20949609;28;19925;-72
2023/08/17 13:47:16;;;;;;;;;;;28.60;99.90;;;;;;20982191;28;19925;-72
2023/08/17 13:57:16;;;;;;;;;;;28.20;99.90;;;;;;20978146;28;19924;-72
2023/08/17 14:07:17;;;;;;;;;;;28.20;99.90;;;;;;20981359;28;19971;-72
2023/08/17 14:17:18;;;;;;;;;;;28.60;99.90;;;;;;20979063;28;19943;-72
2023/08/17 14:27:18;;;;;;;;;;;28.60;99.90;;;;;;20995840;28;19913;-73
2023/08/17 14:37:19;;;;;;;;;;;28.30;99.90;;;;;;20988533;28;20394;-72
2023/08/17 14:47:20;;;;;;;;;;;28.00;99.90;;;;;;20997446;28;19958;-71
2023/08/17 14:57:21;;;;;;;;;;;27.70;99.90;;;;;;20999480;28;20382;-71
2023/08/17 15:07:21;;;;;;;;;;;27.60;99.90;;;;;;20973741;28;19913;-71
2023/08/17 15:17:22;;;;;;;;;;;27.40;99.90;;;;;;20983425;28;19917;-72
2023/08/17 15:27:23;;;;;;;;;;;27.50;99.90;;;;;;20989400;28;19920;-72
2023/08/17 15:37:23;;;;;;;;;;;27.50;99.90;;;;;;20995396;28;20021;-72
2023/08/17 15:47:24;;;;;;;;;;;28.10;99.90;;;;;;20966972;28;20340;-72
2023/08/17 15:57:24;;;;;;;;;;;28.50;99.90;;;;;;20977014;28;19917;-72
2023/08/17 16:07:25;;;;;;;;;;;28.50;99.90;;;;;;20992155;28;20062;-74
2023/08/17 16:17:26;;;;;;;;;;;28.40;99.90;;;;;;20975741;28;20280;-74
2023/08/17 16:27:26;;;;;;;;;;;28.30;99.90;;;;;;20963556;28;20376;-73
2023/08/17 16:37:27;;;;;;;;;;;28.40;99.90;;;;;;20983114;28;19920;-74
2023/08/17 16:47:29;;;;;;;;;;;28.30;99.90;;;;;;20982099;28;19958;-75
2023/08/17 16:57:29;;;;;;;;;;;28.10;99.90;;;;;;20993042;28;19917;-73
2023/08/17 17:07:30;;;;;;;;;;;27.80;99.90;;;;;;20983253;28;19917;-75
2023/08/17 17:17:31;;;;;;;;;;;27.60;99.90;;;;;;20985426;28;19916;-74
2023/08/17 17:27:34;;;;;;;;;;;26.80;99.90;;;;;;20968760;28;19919;-74
2023/08/17 17:37:34;;;;;;;;;;;26.10;99.90;;;;;;20988231;28;19916;-74
2023/08/17 17:47:35;;;;;;;;;;;25.70;99.90;;;;;;20991249;28;20379;-74
2023/08/17 17:57:37;;;;;;;;;;;25.70;99.90;;;;;;20988786;28;19923;-72
2023/08/17 18:07:39;;;;;;;;;;;25.90;99.90;;;;;;20982742;28;19974;-74
2023/08/17 18:17:39;;;;;;;;;;;25.50;99.90;;;;;;20999797;28;19974;-74
2023/08/17 18:27:40;;;;;;;;;;;25.20;99.90;;;;;;21002384;28;19916;-74
2023/08/17 18:37:41;;;;;;;;;;;24.50;99.90;;;;;;21000851;28;19924;-74
2023/08/17 18:47:42;;;;;;;;;;;24.10;99.90;;;;;;20995175;28;20315;-73
2023/08/17 18:57:43;;;;;;;;;;;23.80;99.90;;;;;;20998297;28;19917;-74
2023/08/17 19:07:43;;;;;;;;;;;23.40;99.90;;;;;;20997781;28;19973;-74
2023/08/17 19:17:44;;;;;;;;;;;23.00;99.90;;;;;;20992430;28;20008;-75
2023/08/17 19:27:44;;;;;;;;;;;22.90;99.90;;;;;;21005047;28;19971;-75
2023/08/17 19:37:46;;;;;;;;;;;22.80;99.90;;;;;;21002992;28;19917;-75
2023/08/17 19:47:47;;;;;;;;;;;22.00;99.90;;;;;;20994384;28;19917;-75
2023/08/17 19:57:47;;;;;;;;;;;21.90;99.90;;;;;;20974428;28;20366;-75
2023/08/17 20:07:48;;;;;;;;;;;21.90;99.90;;;;;;20975204;28;19938;-75
2023/08/17 20:17:49;;;;;;;;;;;21.40;99.90;;;;;;21003284;28;20439;-75
2023/08/17 20:27:51;;;;;;;;;;;21.20;99.90;;;;;;20994970;28;19916;-75
2023/08/17 20:37:51;;;;;;;;;;;21.20;99.90;;;;;;20983928;28;19964;-75
2023/08/17 20:47:53;;;;;;;;;;;21.10;99.90;;;;;;20980182;28;19924;-75
2023/08/17 20:57:54;;;;;;;;;;;20.90;99.90;;;;;;20995168;28;19916;-75
2023/08/17 21:07:55;;;;;;;;;;;21.00;99.90;;;;;;21001642;28;20357;-75
2023/08/17 21:17:55;;;;;;;;;;;21.10;99.90;;;;;;20982195;28;19943;-74
2023/08/17 21:27:56;;;;;;;;;;;21.10;99.90;;;;;;21007844;28;19940;-72
2023/08/17 21:37:57;;;;;;;;;;;21.10;99.90;;;;;;20999201;28;20436;-75
2023/08/17 21:47:57;;;;;;;;;;;21.10;99.90;;;;;;20997825;28;19923;-75
2023/08/17 21:57:59;;;;;;;;;;;21.00;99.90;;;;;;20993609;28;19916;-75
2023/08/17 22:07:59;;;;;;;;;;;20.70;99.90;;;;;;20996359;28;19913;-74
2023/08/17 22:18:00;;;;;;;;;;;20.50;99.90;;;;;;21001417;28;19956;-73
2023/08/17 22:28:01;;;;;;;;;;;20.40;99.90;;;;;;21003163;28;19917;-73
2023/08/17 22:38:01;;;;;;;;;;;20.00;99.90;;;;;;20995372;28;20382;-74
2023/08/17 22:48:03;;;;;;;;;;;19.70;99.90;;;;;;21003816;28;19951;-72
2023/08/17 22:58:03;;;;;;;;;;;19.70;99.90;;;;;;21002471;28;19916;-73
2023/08/17 23:08:04;;;;;;;;;;;19.50;99.90;;;;;;21013361;28;20394;-72
2023/08/17 23:18:05;;;;;;;;;;;19.30;99.90;;;;;;21006539;28;19970;-72
2023/08/17 23:28:06;;;;;;;;;;;19.20;99.90;;;;;;21001306;28;19920;-72
2023/08/17 23:38:07;;;;;;;;;;;18.70;99.90;;;;;;20992514;28;19917;-72
2023/08/17 23:48:08;;;;;;;;;;;18.40;99.90;;;;;;21004927;28;20390;-72
2023/08/17 23:58:08;;;;;;;;;;;18.60;99.90;;;;;;20981076;28;19916;-71
